Weather at Alexander Farm Airport

Public forecast

Using degrees Fahrenheit for public forecast. Weather courtesy of forecast.io.

Closest aviation weather report (METAR) to Alexander Farm Airport

Report is more than 6 hours old.

Closest report is Albany International Airport, 13.0 nm (24.0 km) NW.

2022/11/14 14:51 (retrieved 2 years ago)

KALB 141451Z 28015G20KT 10SM FEW045 FEW250 02/M08 A3033 RMK AO2 SLP272 T00221078 51023

Closest aviation forecast (TAF) to Alexander Farm Airport

Forecast is more than 12 hours old.

Closest forecast is Albany International Airport, 13.0 nm (24.0 km) NW.

2023/02/22 18:34 (retrieved 1 year ago)

TAF KALB 221732Z 2218/2318 35005KT P6SM BKN040 OVC120 FM222100 04004KT 4SM -SN BR OVC030 TEMPO 2221/2223 2SM -SN BR OVC015 FM222300 03005KT 3/4SM -SN BR OVC012 FM230300 02007KT 3SM -SNPL BR OVC009 FM230500 02007KT 4SM -FZRAPL BR OVC008 FM231500 01008KT 5SM -DZ BR OVC008